Time;durP1;ratioP1;P1;durP2;ratioP2;P2;SDS_P1;SDS_P2;PMS_P1;PMS_P2;Temp;Humidity;BMP_temperature;BMP_pressure;BME280_temperature;BME280_humidity;BME280_pressure;Samples;Min_cycle;Max_cycle;Signal;HPM_P1;HPM_P2
2023/10/19 00:00:33;;;;;;;21.20;19.17;;;;;;;-148.82;100.00;60434.72;5074168;28;20210;-71
2023/10/19 00:03:03;;;;;;;24.30;21.87;;;;;;;-148.82;100.00;60434.72;5075238;28;20737;-70
2023/10/19 00:05:32;;;;;;;22.97;19.83;;;;;;;-148.82;100.00;60434.72;5073919;28;20238;-71
2023/10/19 00:08:02;;;;;;;21.87;19.77;;;;;;;-148.82;100.00;60434.72;5075011;28;20191;-71
2023/10/19 00:10:33;;;;;;;22.40;20.10;;;;;;;-148.82;100.00;60434.72;5067843;28;20329;-71
2023/10/19 00:13:03;;;;;;;21.30;19.30;;;;;;;-148.82;100.00;60434.72;5073352;28;20245;-72
2023/10/19 00:15:32;;;;;;;22.50;20.50;;;;;;;-148.82;100.00;60434.72;5071521;28;20336;-71
2023/10/19 00:18:13;;;;;;;23.70;21.17;;;;;;;-148.82;100.00;60434.72;5071518;28;20518;-71
2023/10/19 00:20:51;;;;;;;21.30;19.20;;;;;;;-148.82;100.00;60434.72;5074894;28;20300;-71
2023/10/19 00:23:21;;;;;;;20.87;19.07;;;;;;;;;;5073404;28;20213;-71
2023/10/19 00:25:50;;;;;;;22.87;20.67;;;;;;;;;;5076472;28;20234;-71
2023/10/19 00:28:19;;;;;;;22.07;19.87;;;;;;;-148.82;100.00;60434.72;5072433;28;20241;-72
2023/10/19 00:30:48;;;;;;;22.67;20.47;;;;;;;;;;5073001;28;20280;-72
2023/10/19 00:33:18;;;;;;;22.97;20.77;;;;;;;;;;5074196;28;20315;-70
2023/10/19 00:35:51;;;;;;;22.17;20.13;;;;;;;-148.82;100.00;60434.72;5078844;28;20226;-71
2023/10/19 00:41:20;;;;;;;23.47;21.30;;;;;;;-148.82;100.00;60434.72;5039695;28;20230;-71
2023/10/19 00:43:49;;;;;;;22.23;20.10;;;;;;;-148.82;100.00;60434.72;5078341;28;20198;-72
2023/10/19 00:46:21;;;;;;;22.70;20.43;;;;;;;-148.82;100.00;60434.72;5075483;28;21556;-71
2023/10/19 00:48:55;;;;;;;20.87;18.77;;;;;;;-148.82;100.00;60434.72;5074013;28;20590;-71
2023/10/19 00:51:38;;;;;;;22.83;20.50;;;;;;;-148.82;100.00;60434.72;5080466;28;20210;-71
2023/10/19 00:54:10;;;;;;;22.30;20.17;;;;;;;-148.82;100.00;60434.72;5077936;28;20641;-70
2023/10/19 00:56:45;;;;;;;22.63;20.20;;;;;;;-148.82;100.00;60434.72;5076183;28;20209;-71
2023/10/19 00:59:14;;;;;;;21.27;19.17;;;;;;;-148.82;100.00;60434.72;5074814;28;20669;-70
2023/10/19 01:01:45;;;;;;;22.07;19.90;;;;;;;;;;5076732;28;20287;-70
2023/10/19 01:04:20;;;;;;;23.17;20.87;;;;;;;-148.82;100.00;60434.72;5078597;28;20191;-72
2023/10/19 01:07:00;;;;;;;22.20;20.10;;;;;;;-148.82;100.00;60434.72;5076991;28;20280;-71
2023/10/19 01:09:28;;;;;;;21.90;19.77;;;;;;;-148.82;100.00;60434.72;5077456;28;20194;-71
2023/10/19 01:12:00;;;;;;;21.93;19.87;;;;;;;-148.82;100.00;60434.72;5074738;28;20688;-71
2023/10/19 01:14:29;;;;;;;20.13;18.23;;;;;;;;;;5077197;28;20218;-70
2023/10/19 01:16:58;;;;;;;23.70;21.40;;;;;;;-148.82;100.00;60434.72;5075111;28;20214;-72
2023/10/19 01:19:28;;;;;;;21.43;19.43;;;;;;;-148.82;100.00;60434.72;5075382;28;20283;-71
2023/10/19 01:22:01;;;;;;;21.87;19.67;;;;;;;-148.82;100.00;60434.72;5077553;28;20203;-71
2023/10/19 01:24:39;;;;;;;22.67;20.27;;;;;;;-148.82;100.00;60434.72;5078147;28;20222;-70
2023/10/19 01:27:10;;;;;;;24.40;22.00;;;;;;;-148.82;100.00;60434.72;5068712;28;20295;-72
2023/10/19 01:29:39;;;;;;;24.63;22.23;;;;;;;-148.82;100.00;60434.72;5074500;28;20202;-72
2023/10/19 01:32:08;;;;;;;22.73;20.40;;;;;;;;;;5073693;28;20756;-71
2023/10/19 01:34:37;;;;;;;22.50;20.30;;;;;;;-148.82;100.00;60434.72;5075894;28;20226;-73
2023/10/19 01:37:04;;;;;;;24.40;22.00;;;;;;;-148.82;100.00;60434.72;5079272;28;20226;-72
2023/10/19 01:39:35;;;;;;;24.47;21.97;;;;;;;-148.82;100.00;60434.72;5073682;28;20232;-71
2023/10/19 01:42:05;;;;;;;22.70;20.70;;;;;;;-148.82;100.00;60434.72;5076865;28;20534;-71
2023/10/19 01:44:33;;;;;;;23.40;21.13;;;;;;;;;;5074708;28;20282;-70
2023/10/19 01:47:00;;;;;;;22.50;20.40;;;;;;;-148.82;100.00;60434.72;5076832;28;20198;-70
2023/10/19 01:49:29;;;;;;;22.67;20.47;;;;;;;-148.82;100.00;60434.72;5072642;28;20289;-70
2023/10/19 01:51:56;;;;;;;23.67;21.37;;;;;;;-148.82;100.00;60434.72;5078003;28;20255;-71
2023/10/19 01:54:25;;;;;;;24.27;21.77;;;;;;;-148.82;100.00;60434.72;5076613;28;20206;-71
2023/10/19 01:56:55;;;;;;;22.70;20.53;;;;;;;-148.82;100.00;60434.72;5094067;28;20198;-71
2023/10/19 01:59:26;;;;;;;23.87;21.57;;;;;;;-148.82;100.00;60434.72;5097898;28;20213;-72
2023/10/19 02:01:54;;;;;;;22.40;20.20;;;;;;;-148.82;100.00;60434.72;5098410;27;20205;-71
2023/10/19 02:04:22;;;;;;;23.27;21.07;;;;;;;-148.82;100.00;60434.72;5096952;27;20254;-71
2023/10/19 02:06:51;;;;;;;23.40;21.03;;;;;;;-148.82;100.00;60434.72;5096669;27;20258;-70
2023/10/19 02:09:23;;;;;;;21.90;19.83;;;;;;;-148.82;100.00;60434.72;5095846;27;20723;-70
2023/10/19 02:11:55;;;;;;;23.73;21.40;;;;;;;-148.82;100.00;60434.72;5094717;28;20216;-71
2023/10/19 02:14:24;;;;;;;23.90;21.50;;;;;;;-148.82;100.00;60434.72;5094574;27;20231;-70
2023/10/19 02:16:56;;;;;;;23.13;20.80;;;;;;;-148.82;100.00;60434.72;5096754;28;20620;-71
2023/10/19 02:19:24;;;;;;;22.03;19.87;;;;;;;-148.82;100.00;60434.72;5095591;28;20956;-71
2023/10/19 02:21:53;;;;;;;21.63;19.63;;;;;;;-148.82;100.00;60434.72;5098373;28;20293;-70
2023/10/19 02:24:20;;;;;;;23.77;21.40;;;;;;;-148.82;100.00;60434.72;5096865;27;20206;-71
2023/10/19 02:26:52;;;;;;;22.93;20.70;;;;;;;-148.82;100.00;60434.72;5096978;28;20224;-72
2023/10/19 02:29:21;;;;;;;22.30;19.90;;;;;;;-148.82;100.00;60434.72;5098267;28;20213;-72
2023/10/19 02:31:50;;;;;;;21.63;19.43;;;;;;;-148.82;100.00;60434.72;5093128;28;20296;-72
2023/10/19 02:34:17;;;;;;;20.67;18.63;;;;;;;-148.82;100.00;60434.72;5093479;28;20580;-73
2023/10/19 02:36:47;;;;;;;22.57;20.37;;;;;;;-148.82;100.00;60434.72;5096505;28;20197;-72
2023/10/19 02:39:14;;;;;;;23.10;20.90;;;;;;;;;;5094549;27;20224;-71
2023/10/19 02:41:43;;;;;;;21.37;19.17;;;;;;;;;;5097628;28;20209;-71
2023/10/19 02:44:19;;;;;;;22.93;20.83;;;;;;;;;;5095078;28;20271;-71
2023/10/19 02:46:50;;;;;;;23.77;21.50;;;;;;;-148.82;100.00;60434.72;5092750;28;20269;-72
2023/10/19 02:49:18;;;;;;;22.63;20.40;;;;;;;-148.82;100.00;60434.72;5096642;28;20264;-71
2023/10/19 02:51:47;;;;;;;23.37;21.17;;;;;;;-148.82;100.00;60434.72;5088558;28;20206;-72
2023/10/19 02:54:18;;;;;;;23.00;20.90;;;;;;;;;;5094002;28;20193;-70
2023/10/19 02:56:49;;;;;;;22.83;20.63;;;;;;;-148.82;100.00;60434.72;5095438;28;20248;-70
2023/10/19 02:59:16;;;;;;;22.80;20.60;;;;;;;-148.82;100.00;60434.72;5096624;28;20297;-71
2023/10/19 03:01:45;;;;;;;23.57;21.37;;;;;;;-148.82;100.00;60434.72;5097343;28;20205;-70
2023/10/19 03:04:15;;;;;;;22.17;19.97;;;;;;;-148.82;100.00;60434.72;5095658;28;20239;-71
2023/10/19 03:06:43;;;;;;;20.97;18.97;;;;;;;-148.82;100.00;60434.72;5097285;28;20208;-70
2023/10/19 03:09:13;;;;;;;22.07;20.07;;;;;;;-148.82;100.00;60434.72;5097009;27;20327;-72
2023/10/19 03:11:41;;;;;;;22.67;20.57;;;;;;;-148.82;100.00;60434.72;5096465;28;20251;-72
2023/10/19 03:14:08;;;;;;;24.70;22.10;;;;;;;;;;5098283;27;20952;-71
2023/10/19 03:16:36;;;;;;;22.93;20.73;;;;;;;-148.82;100.00;60434.72;5094524;28;20292;-71
2023/10/19 03:19:04;;;;;;;23.53;21.37;;;;;;;-148.82;100.00;60434.72;5095159;28;20243;-72
2023/10/19 03:21:34;;;;;;;25.03;22.63;;;;;;;-148.82;100.00;60434.72;5097259;27;20301;-71
2023/10/19 03:24:12;;;;;;;24.00;21.87;;;;;;;;;;5094797;27;20233;-73
2023/10/19 03:26:43;;;;;;;24.60;22.10;;;;;;;;;;5098213;27;20637;-70
2023/10/19 03:29:13;;;;;;;23.17;20.77;;;;;;;-148.82;100.00;60434.72;5097640;27;20254;-71
2023/10/19 03:31:43;;;;;;;23.40;21.27;;;;;;;-148.82;100.00;60434.72;5096219;28;20605;-73
2023/10/19 03:34:12;;;;;;;23.03;20.93;;;;;;;-148.82;100.00;60434.72;5097887;28;20207;-70
2023/10/19 03:36:42;;;;;;;24.23;21.87;;;;;;;-148.82;100.00;60434.72;5097994;27;20299;-73
2023/10/19 03:39:13;;;;;;;22.10;20.10;;;;;;;-148.82;100.00;60434.72;5094230;27;20225;-72
2023/10/19 03:41:42;;;;;;;23.70;21.40;;;;;;;-148.82;100.00;60434.72;5096316;28;20202;-71
2023/10/19 03:44:16;;;;;;;26.13;23.43;;;;;;;-148.82;100.00;60434.72;5099085;28;20206;-73
2023/10/19 03:46:54;;;;;;;25.60;23.13;;;;;;;-148.82;100.00;60434.72;5098040;28;20229;-69
2023/10/19 03:49:23;;;;;;;24.50;22.10;;;;;;;-148.82;100.00;60434.72;5097245;28;20197;-71
2023/10/19 03:52:00;;;;;;;24.80;22.37;;;;;;;-148.82;100.00;60434.72;5099963;28;20216;-71
2023/10/19 03:54:29;;;;;;;24.97;22.37;;;;;;;-148.82;100.00;60434.72;5094705;28;20213;-71
2023/10/19 03:56:57;;;;;;;24.27;22.00;;;;;;;;;;5099211;28;20254;-72
2023/10/19 03:59:29;;;;;;;25.43;22.93;;;;;;;-148.82;100.00;60434.72;5095591;28;20230;-71
2023/10/19 04:01:59;;;;;;;25.87;22.90;;;;;;;-148.82;100.00;60434.72;5095431;28;20229;-70
2023/10/19 04:04:29;;;;;;;25.40;22.90;;;;;;;-148.82;100.00;60434.72;5092880;28;20229;-71
2023/10/19 04:06:58;;;;;;;25.67;23.23;;;;;;;-148.82;100.00;60434.72;5096515;28;20244;-71
2023/10/19 04:09:28;;;;;;;23.67;21.47;;;;;;;-148.82;100.00;60434.72;5099379;27;20357;-70
2023/10/19 04:11:57;;;;;;;25.23;22.83;;;;;;;-148.82;100.00;60434.72;5101695;27;20202;-71
2023/10/19 04:14:24;;;;;;;24.97;22.23;;;;;;;-148.82;100.00;60434.72;5101173;28;20626;-71
2023/10/19 04:16:52;;;;;;;25.57;23.27;;;;;;;;;;5100041;28;20292;-71
2023/10/19 04:19:20;;;;;;;24.03;21.93;;;;;;;;;;5098509;27;20212;-69
2023/10/19 04:21:50;;;;;;;24.53;22.17;;;;;;;-148.82;100.00;60434.72;5103822;27;20205;-70
2023/10/19 04:24:19;;;;;;;24.40;21.93;;;;;;;-148.82;100.00;60434.72;5101418;28;20271;-70
2023/10/19 04:26:48;;;;;;;25.53;23.10;;;;;;;;;;5101032;28;20296;-70
2023/10/19 04:29:19;;;;;;;24.10;21.70;;;;;;;-148.82;100.00;60434.72;5100668;27;20202;-72
2023/10/19 04:31:50;;;;;;;24.93;22.40;;;;;;;-148.82;100.00;60434.72;5103136;27;20205;-72
2023/10/19 04:34:21;;;;;;;25.20;22.70;;;;;;;-148.82;100.00;60434.72;5102972;28;20198;-73
2023/10/19 04:36:49;;;;;;;23.10;20.80;;;;;;;-148.82;100.00;60434.72;5100451;28;20241;-71
2023/10/19 04:39:19;;;;;;;26.90;23.13;;;;;;;;;;5100568;28;20295;-72
2023/10/19 04:41:49;;;;;;;23.93;21.70;;;;;;;-148.82;100.00;60434.72;5104669;27;20205;-72
2023/10/19 04:44:17;;;;;;;25.90;23.40;;;;;;;-148.82;100.00;60434.72;5098964;28;20345;-75
2023/10/19 04:46:46;;;;;;;25.47;23.17;;;;;;;;;;5099884;27;20205;-71
2023/10/19 04:49:14;;;;;;;23.70;21.50;;;;;;;-148.82;100.00;60434.72;5101538;27;20271;-71
2023/10/19 04:51:43;;;;;;;25.03;22.37;;;;;;;-148.82;100.00;60434.72;5100382;27;20285;-70
2023/10/19 04:54:11;;;;;;;25.83;23.43;;;;;;;-148.82;100.00;60434.72;5099006;28;20816;-71
2023/10/19 04:56:38;;;;;;;26.73;23.83;;;;;;;-148.82;100.00;60434.72;5099761;28;20193;-70
2023/10/19 04:59:07;;;;;;;24.17;21.77;;;;;;;-148.82;100.00;60434.72;5100510;27;20209;-71
2023/10/19 05:01:35;;;;;;;24.93;22.63;;;;;;;;;;5098999;27;20462;-71
2023/10/19 05:04:03;;;;;;;24.13;21.70;;;;;;;-148.82;100.00;60434.72;5104342;27;20839;-71
2023/10/19 05:06:30;;;;;;;24.90;22.43;;;;;;;;;;5100583;27;20228;-72
2023/10/19 05:08:58;;;;;;;22.80;20.70;;;;;;;-148.82;100.00;60434.72;5100874;28;20205;-73
2023/10/19 05:11:25;;;;;;;25.53;23.13;;;;;;;-148.82;100.00;60434.72;5100255;27;20530;-73
2023/10/19 05:13:53;;;;;;;24.73;22.27;;;;;;;-148.82;100.00;60434.72;5100651;27;20209;-70
2023/10/19 05:16:22;;;;;;;26.07;23.57;;;;;;;-148.82;100.00;60434.72;5101602;28;20768;-70
2023/10/19 05:18:50;;;;;;;24.47;22.07;;;;;;;-148.82;100.00;60434.72;5100367;27;20320;-70
2023/10/19 05:21:18;;;;;;;26.00;23.43;;;;;;;-148.82;100.00;60434.72;5101115;28;20962;-71
2023/10/19 05:23:45;;;;;;;24.43;22.13;;;;;;;-148.82;100.00;60434.72;5099264;27;20237;-71
2023/10/19 05:26:14;;;;;;;25.53;23.13;;;;;;;-148.82;100.00;60434.72;5101494;27;20236;-72
2023/10/19 05:28:43;;;;;;;25.40;22.90;;;;;;;-148.82;100.00;60434.72;5097323;27;20288;-72
2023/10/19 05:31:11;;;;;;;23.60;21.30;;;;;;;-148.82;100.00;60434.72;5101062;27;20197;-71
2023/10/19 05:33:41;;;;;;;24.70;22.10;;;;;;;-148.82;100.00;60434.72;5100215;28;20362;-72
2023/10/19 05:36:08;;;;;;;24.57;22.20;;;;;;;-148.82;100.00;60434.72;5101490;27;20800;-71
2023/10/19 05:38:36;;;;;;;24.87;22.40;;;;;;;-148.82;100.00;60434.72;5099097;27;20205;-73
2023/10/19 05:41:04;;;;;;;23.83;21.63;;;;;;;-148.82;100.00;60434.72;5098614;27;20227;-73
2023/10/19 05:43:33;;;;;;;24.77;22.37;;;;;;;;;;5098008;28;20210;-73
2023/10/19 05:46:00;;;;;;;25.33;22.60;;;;;;;;;;5098174;27;20626;-73
2023/10/19 05:48:28;;;;;;;24.30;21.90;;;;;;;-148.82;100.00;60434.72;5096944;28;20240;-73
2023/10/19 05:50:57;;;;;;;24.07;21.83;;;;;;;-148.82;100.00;60434.72;5099201;27;20621;-73
2023/10/19 05:53:25;;;;;;;24.40;22.10;;;;;;;;;;5099572;27;20296;-73
2023/10/19 05:55:52;;;;;;;25.40;22.80;;;;;;;-148.82;100.00;60434.72;5100035;27;20641;-72
2023/10/19 05:58:21;;;;;;;25.67;23.27;;;;;;;-148.82;100.00;60434.72;5099953;27;20198;-74
2023/10/19 06:00:51;;;;;;;23.83;21.73;;;;;;;-148.82;100.00;60434.72;5094806;28;20231;-73
2023/10/19 06:03:19;;;;;;;22.07;20.07;;;;;;;-148.82;100.00;60434.72;5099075;27;20205;-72
2023/10/19 06:05:47;;;;;;;22.33;20.23;;;;;;;;;;5096613;27;20583;-71
2023/10/19 06:08:16;;;;;;;22.10;20.03;;;;;;;;;;5098216;27;20202;-72
2023/10/19 06:10:43;;;;;;;21.97;20.00;;;;;;;-148.82;100.00;60434.72;5096718;28;20282;-71
2023/10/19 06:13:11;;;;;;;21.17;19.17;;;;;;;-148.82;100.00;60434.72;5099853;27;20256;-72
2023/10/19 06:15:39;;;;;;;21.60;19.67;;;;;;;-148.82;100.00;60434.72;5096088;27;20316;-71
2023/10/19 06:18:06;;;;;;;20.50;18.50;;;;;;;-148.82;100.00;60434.72;5096876;28;20209;-71
2023/10/19 06:20:35;;;;;;;19.90;18.20;;;;;;;-148.82;100.00;60434.72;5096436;28;20221;-73
2023/10/19 06:23:05;;;;;;;20.07;18.07;;;;;;;;;;5101209;27;20572;-71
2023/10/19 06:25:35;;;;;;;19.83;17.97;;;;;;;-148.82;100.00;60434.72;5092853;27;20285;-71
2023/10/19 06:28:03;;;;;;;18.97;17.20;;;;;;;-148.82;100.00;60434.72;5100511;28;20198;-72
2023/10/19 06:30:31;;;;;;;18.50;16.77;;;;;;;;;;5099626;27;20269;-72
2023/10/19 06:33:00;;;;;;;19.80;18.00;;;;;;;;;;5098996;27;20221;-72
2023/10/19 06:35:31;;;;;;;19.17;17.27;;;;;;;;;;5100337;27;20210;-71
2023/10/19 06:37:59;;;;;;;18.37;16.67;;;;;;;-148.82;100.00;60434.72;5096419;28;20205;-71
2023/10/19 06:40:28;;;;;;;19.50;17.80;;;;;;;;;;5099145;27;20229;-72
2023/10/19 06:42:57;;;;;;;19.70;17.77;;;;;;;;;;5101485;27;20869;-71
2023/10/19 06:45:26;;;;;;;16.73;15.33;;;;;;;-148.82;100.00;60434.72;5096174;27;20332;-70
2023/10/19 06:47:54;;;;;;;17.93;16.43;;;;;;;-148.82;100.00;60434.72;5093750;28;20236;-72
2023/10/19 06:50:23;;;;;;;19.03;17.23;;;;;;;-148.82;100.00;60434.72;5096274;27;20198;-69
2023/10/19 06:55:28;;;;;;;21.20;19.10;;;;;;;-148.82;100.00;60434.72;5003440;28;55620;-73
2023/10/19 06:57:58;;;;;;;22.10;20.07;;;;;;;-148.82;100.00;60434.72;5029752;28;20258;-70
2023/10/19 07:00:27;;;;;;;20.27;18.40;;;;;;;-148.82;100.00;60434.72;5034779;28;20583;-72
2023/10/19 07:02:55;;;;;;;20.20;18.20;;;;;;;;;;5034996;28;20216;-73
2023/10/19 07:05:24;;;;;;;20.90;19.00;;;;;;;-148.82;100.00;60434.72;5030716;28;20203;-72
2023/10/19 07:07:54;;;;;;;23.40;21.10;;;;;;;-148.82;100.00;60434.72;5030479;28;20216;-74
2023/10/19 07:10:23;;;;;;;19.87;18.07;;;;;;;-148.82;100.00;60434.72;5035762;28;20210;-71
2023/10/19 07:12:53;;;;;;;19.77;17.87;;;;;;;-148.82;100.00;60434.72;5028252;28;20219;-73
2023/10/19 07:15:25;;;;;;;15.90;14.50;;;;;;;8.36;nan;95298.59;5034621;28;20215;-70
